createdAt,value
2023-03-21T00:00:12.184Z,8.27
2023-03-21T00:01:11.226Z,8.27
2023-03-21T00:02:11.232Z,8.23
2023-03-21T00:03:11.218Z,8.26
2023-03-21T00:04:11.265Z,8.27
2023-03-21T00:05:15.705Z,8.28
2023-03-21T00:06:12.160Z,8.26
2023-03-21T00:07:11.124Z,8.28
2023-03-21T00:08:11.088Z,8.27
2023-03-21T00:09:11.084Z,8.28
2023-03-21T00:10:16.561Z,8.27
2023-03-21T00:11:12.105Z,8.26
2023-03-21T00:12:11.082Z,8.28
2023-03-21T00:13:11.180Z,8.28
2023-03-21T00:14:11.026Z,8.24
2023-03-21T00:15:11.011Z,8.24
2023-03-21T00:16:13.647Z,8.16
2023-03-21T00:17:12.007Z,8.16
2023-03-21T00:18:10.984Z,8.13
2023-03-21T00:19:10.977Z,8.13
2023-03-21T00:20:10.987Z,8.10
2023-03-21T00:21:39.158Z,8.12
2023-03-21T00:22:11.937Z,8.09
2023-03-21T00:23:10.930Z,8.08
2023-03-21T00:24:10.914Z,8.06
2023-03-21T00:25:10.900Z,8.03
2023-03-21T00:26:10.907Z,8.03
2023-03-21T00:27:34.572Z,8.00
2023-03-21T00:28:11.869Z,8.00
2023-03-21T00:29:10.841Z,8.00
2023-03-21T00:30:10.834Z,7.98
2023-03-21T00:31:10.877Z,8.00
2023-03-21T00:32:10.834Z,8.01
2023-03-21T00:33:21.978Z,8.01
2023-03-21T00:35:51.286Z,8.03
2023-03-21T00:36:12.338Z,8.00
2023-03-21T00:37:10.760Z,7.97
2023-03-21T00:38:10.763Z,8.00
2023-03-21T00:39:10.730Z,8.00
2023-03-21T00:40:16.385Z,7.97
2023-03-21T00:41:23.309Z,7.98
2023-03-21T00:42:11.699Z,7.95
2023-03-21T00:43:10.690Z,7.95
2023-03-21T00:44:10.718Z,7.97
2023-03-21T00:45:10.649Z,8.03
2023-03-21T00:46:10.714Z,8.05
2023-03-21T00:47:10.674Z,8.03
2023-03-21T00:48:10.702Z,8.03
2023-03-21T00:49:10.649Z,8.01
2023-03-21T00:50:10.613Z,8.03
2023-03-21T00:51:10.638Z,8.08
2023-03-21T00:52:27.369Z,8.08
2023-03-21T00:53:11.574Z,8.09
2023-03-21T00:54:10.572Z,8.09
2023-03-21T00:55:10.548Z,8.09
2023-03-21T00:56:10.588Z,8.06
2023-03-21T00:57:10.538Z,8.08
2023-03-21T00:58:10.528Z,8.09
2023-03-21T00:59:10.516Z,8.10
2023-03-21T01:00:10.601Z,8.09
2023-03-21T01:01:10.540Z,8.10
2023-03-21T01:02:10.487Z,8.12
2023-03-21T01:03:23.144Z,8.13
2023-03-21T01:04:11.442Z,8.18
2023-03-21T01:05:10.430Z,8.12
2023-03-21T01:06:10.473Z,8.13
2023-03-21T01:07:10.429Z,8.13
2023-03-21T01:08:23.772Z,8.20
2023-03-21T01:09:11.385Z,8.26
2023-03-21T01:10:10.382Z,8.27
2023-03-21T01:11:10.412Z,8.31
2023-03-21T01:12:10.359Z,8.30
2023-03-21T01:13:10.345Z,8.31
2023-03-21T01:14:22.018Z,8.34
2023-03-21T01:15:11.307Z,8.33
2023-03-21T01:16:10.382Z,8.31
2023-03-21T01:17:10.296Z,8.30
2023-03-21T01:18:10.304Z,8.28
2023-03-21T01:19:22.261Z,8.30
2023-03-21T01:20:11.268Z,8.30
2023-03-21T01:21:10.275Z,8.31
2023-03-21T01:22:10.254Z,8.26
2023-03-21T01:23:10.218Z,8.23
2023-03-21T01:24:10.215Z,8.24
2023-03-21T01:25:22.001Z,8.20
2023-03-21T01:26:11.225Z,8.20
2023-03-21T01:27:10.177Z,8.23
2023-03-21T01:28:10.175Z,8.24
2023-03-21T01:29:10.174Z,8.26
2023-03-21T01:30:19.108Z,8.26
2023-03-21T01:31:11.201Z,8.27
2023-03-21T01:32:10.135Z,8.30
2023-03-21T01:33:10.113Z,8.33
2023-03-21T01:34:10.117Z,8.30
2023-03-21T01:35:10.065Z,8.28
2023-03-21T01:36:13.370Z,8.30
2023-03-21T01:37:10.066Z,8.28
2023-03-21T01:38:10.061Z,8.24
2023-03-21T01:39:10.050Z,8.23
2023-03-21T01:40:10.058Z,8.19
2023-03-21T01:41:19.209Z,8.20
2023-03-21T01:42:11.007Z,8.18
2023-03-21T01:43:10.008Z,8.20
2023-03-21T01:44:09.997Z,8.23
2023-03-21T01:45:09.973Z,8.18
2023-03-21T01:46:10.064Z,8.18
2023-03-21T01:47:11.884Z,8.20
2023-03-21T01:48:09.953Z,8.24
2023-03-21T01:49:09.915Z,8.26
2023-03-21T01:50:09.917Z,8.30
2023-03-21T01:51:09.926Z,8.28
2023-03-21T01:52:15.271Z,8.24
2023-03-21T01:53:10.876Z,8.24
2023-03-21T01:54:09.872Z,8.23
2023-03-21T01:55:09.862Z,8.19
2023-03-21T01:56:09.893Z,8.19
2023-03-21T01:57:09.843Z,8.19
2023-03-21T01:58:09.930Z,8.24
2023-03-21T01:59:09.818Z,8.27
2023-03-21T02:00:09.832Z,8.24
2023-03-21T02:01:09.909Z,8.26
2023-03-21T02:02:09.765Z,8.20
2023-03-21T02:03:15.262Z,8.24
2023-03-21T02:04:10.773Z,8.19
2023-03-21T02:05:09.787Z,8.23
2023-03-21T02:06:09.808Z,8.15
2023-03-21T02:07:09.785Z,8.12
2023-03-21T02:08:09.690Z,8.08
2023-03-21T02:09:09.730Z,8.06
2023-03-21T02:10:09.690Z,8.06
2023-03-21T02:11:09.686Z,8.05
2023-03-21T02:12:09.660Z,8.03
2023-03-21T02:13:09.669Z,8.03
2023-03-21T02:14:10.109Z,8.00
2023-03-21T02:15:09.617Z,8.00
2023-03-21T02:16:09.655Z,8.00
2023-03-21T02:17:09.588Z,8.00
2023-03-21T02:18:09.588Z,7.98
2023-03-21T02:19:09.572Z,7.97
2023-03-21T02:20:09.579Z,7.95
2023-03-21T02:21:09.584Z,8.01
2023-03-21T02:22:09.561Z,7.98
2023-03-21T02:23:09.542Z,8.00
2023-03-21T02:24:09.522Z,7.95
2023-03-21T02:25:21.273Z,7.98
2023-03-21T02:26:10.539Z,7.97
2023-03-21T02:27:09.485Z,7.95
2023-03-21T02:28:09.475Z,7.95
2023-03-21T02:29:09.455Z,7.93
2023-03-21T02:30:09.943Z,7.94
2023-03-21T02:31:09.497Z,8.00
2023-03-21T02:32:20.406Z,8.05
2023-03-21T02:33:10.411Z,8.06
2023-03-21T02:34:09.414Z,8.08
2023-03-21T02:35:09.402Z,8.09
2023-03-21T02:36:14.417Z,8.12
2023-03-21T02:37:10.360Z,8.12
2023-03-21T02:38:09.348Z,8.09
2023-03-21T02:39:09.333Z,8.09
2023-03-21T02:40:09.346Z,8.10
2023-03-21T02:41:17.977Z,8.06
2023-03-21T02:42:10.307Z,8.06
2023-03-21T02:43:20.835Z,8.08
2023-03-21T02:44:10.285Z,8.06
2023-03-21T02:45:09.283Z,8.05
2023-03-21T02:46:09.328Z,8.09
2023-03-21T02:47:09.313Z,8.08
2023-03-21T02:48:14.571Z,8.06
2023-03-21T02:49:10.258Z,8.05
2023-03-21T02:50:09.230Z,8.03
2023-03-21T02:51:09.238Z,8.03
2023-03-21T02:52:16.997Z,8.03
2023-03-21T02:53:10.188Z,8.03
2023-03-21T02:55:10.181Z,8.03
2023-03-21T02:56:09.212Z,8.03
2023-03-21T02:57:09.149Z,8.05
2023-03-21T02:58:13.124Z,8.06
2023-03-21T02:59:09.112Z,8.06
2023-03-21T03:00:16.298Z,8.09
2023-03-21T03:01:10.287Z,8.10
2023-03-21T03:02:09.091Z,8.10
2023-03-21T03:03:12.658Z,8.09
2023-03-21T03:04:10.159Z,8.10
2023-03-21T03:05:20.475Z,8.09
2023-03-21T03:06:10.078Z,8.06
2023-03-21T03:07:09.039Z,8.05
2023-03-21T03:08:09.013Z,8.05
2023-03-21T03:09:08.996Z,8.01
2023-03-21T03:10:09.003Z,8.00
2023-03-21T03:11:09.009Z,7.98
2023-03-21T03:12:08.977Z,8.01
2023-03-21T03:13:08.953Z,8.05
2023-03-21T03:14:28.538Z,8.08
2023-03-21T03:15:09.937Z,8.08
2023-03-21T03:16:08.995Z,8.06
2023-03-21T03:17:08.916Z,8.05
2023-03-21T03:18:08.913Z,8.01
2023-03-21T03:19:08.907Z,8.06
2023-03-21T03:20:16.271Z,8.03
2023-03-21T03:21:09.910Z,8.01
2023-03-21T03:22:08.863Z,7.98
2023-03-21T03:23:08.842Z,7.97
2023-03-21T03:24:08.842Z,8.00
2023-03-21T03:25:19.839Z,8.03
2023-03-21T03:26:09.861Z,8.05
2023-03-21T03:27:08.802Z,8.05
2023-03-21T03:28:08.801Z,8.06
2023-03-21T03:29:08.774Z,8.10
2023-03-21T03:30:08.759Z,8.05
2023-03-21T03:31:10.198Z,8.08
2023-03-21T03:32:08.795Z,8.10
2023-03-21T03:33:08.735Z,8.08
2023-03-21T03:34:08.717Z,8.05
2023-03-21T03:35:08.732Z,8.06
2023-03-21T03:36:10.887Z,8.06
2023-03-21T03:37:08.697Z,8.03
2023-03-21T03:38:08.692Z,8.01
2023-03-21T03:39:08.691Z,8.03
2023-03-21T03:40:08.652Z,7.98
2023-03-21T03:41:08.682Z,7.98
2023-03-21T03:42:21.891Z,7.97
2023-03-21T03:43:09.619Z,7.95
2023-03-21T03:44:08.596Z,7.93
2023-03-21T03:45:08.570Z,7.93
2023-03-21T03:46:08.636Z,7.88
2023-03-21T03:47:08.597Z,7.88
2023-03-21T03:48:08.609Z,7.83
2023-03-21T03:49:08.561Z,7.80
2023-03-21T03:50:08.551Z,7.76
2023-03-21T03:51:08.563Z,7.75
2023-03-21T03:52:08.515Z,7.76
2023-03-21T03:53:17.716Z,7.73
2023-03-21T03:54:09.491Z,7.72
2023-03-21T03:55:08.478Z,7.70
2023-03-21T03:56:08.502Z,7.69
2023-03-21T03:57:08.445Z,7.66
2023-03-21T03:58:21.131Z,7.58
2023-03-21T03:59:09.446Z,7.57
2023-03-21T04:00:08.419Z,7.51
2023-03-21T04:01:08.435Z,7.51
2023-03-21T04:02:08.409Z,7.48
2023-03-21T04:03:08.458Z,7.50
2023-03-21T04:04:13.302Z,7.45
2023-03-21T04:05:09.352Z,7.40
2023-03-21T04:06:08.383Z,7.36
2023-03-21T04:07:08.346Z,7.39
2023-03-21T04:08:08.327Z,7.38
2023-03-21T04:09:19.128Z,7.33
2023-03-21T04:10:09.313Z,7.31
2023-03-21T04:11:08.320Z,7.31
2023-03-21T04:12:08.287Z,7.29
2023-03-21T04:13:08.273Z,7.28
2023-03-21T04:14:08.255Z,7.25
2023-03-21T04:15:11.109Z,7.21
2023-03-21T04:16:08.298Z,7.21
2023-03-21T04:17:08.237Z,7.23
2023-03-21T04:18:08.228Z,7.21
2023-03-21T04:19:08.209Z,7.21
2023-03-21T04:20:13.049Z,7.20
2023-03-21T04:21:09.207Z,7.20
2023-03-21T04:22:08.218Z,7.17
2023-03-21T04:23:08.181Z,7.17
2023-03-21T04:24:08.168Z,7.15
2023-03-21T04:25:08.158Z,7.17
2023-03-21T04:26:08.165Z,7.17
2023-03-21T04:27:08.136Z,7.18
2023-03-21T04:28:08.123Z,7.18
2023-03-21T04:29:08.101Z,7.17
2023-03-21T04:30:08.134Z,7.18
2023-03-21T04:31:19.078Z,7.15
2023-03-21T04:32:09.116Z,7.13
2023-03-21T04:33:08.072Z,7.13
2023-03-21T04:34:08.060Z,7.10
2023-03-21T04:35:08.035Z,7.13
2023-03-21T04:36:08.096Z,7.07
2023-03-21T04:37:08.027Z,7.10
2023-03-21T04:38:08.016Z,7.07
2023-03-21T04:39:07.992Z,7.07
2023-03-21T04:40:07.986Z,7.10
2023-03-21T04:41:08.019Z,7.05
2023-03-21T04:42:07.961Z,7.06
2023-03-21T04:43:07.982Z,7.11
2023-03-21T04:44:07.944Z,7.07
2023-03-21T04:45:07.956Z,7.10
2023-03-21T04:46:07.990Z,7.05
2023-03-21T04:47:07.897Z,7.07
2023-03-21T04:48:07.966Z,7.06
2023-03-21T04:49:07.898Z,7.06
2023-03-21T04:50:07.876Z,7.06
2023-03-21T04:51:07.903Z,7.05
2023-03-21T04:52:07.855Z,7.06
2023-03-21T04:53:07.834Z,7.06
2023-03-21T04:54:41.618Z,7.06
2023-03-21T04:55:41.635Z,7.05
2023-03-21T04:56:41.588Z,7.03
2023-03-21T04:57:41.599Z,7.05
2023-03-21T04:58:41.571Z,7.05
2023-03-21T04:59:41.587Z,7.10
2023-03-21T05:00:41.585Z,7.13
2023-03-21T05:01:41.557Z,7.11
2023-03-21T05:02:41.525Z,7.13
2023-03-21T05:03:41.615Z,7.14
2023-03-21T05:04:41.494Z,7.11
2023-03-21T05:05:41.557Z,7.13
2023-03-21T05:06:41.491Z,7.11
2023-03-21T05:07:41.478Z,7.14
2023-03-21T05:08:41.470Z,7.15
2023-03-21T05:09:41.472Z,7.14
2023-03-21T05:10:41.500Z,7.14
2023-03-21T05:11:41.436Z,7.15
2023-03-21T05:12:41.428Z,7.14
2023-03-21T05:13:41.429Z,7.15
2023-03-21T05:14:41.416Z,7.15
2023-03-21T05:15:41.458Z,7.18
2023-03-21T05:16:41.406Z,7.20
2023-03-21T05:17:41.387Z,7.20
2023-03-21T05:18:41.350Z,7.21
2023-03-21T05:19:41.389Z,7.20
2023-03-21T05:20:41.371Z,7.23
2023-03-21T05:21:41.379Z,7.24
2023-03-21T05:22:41.326Z,7.24
2023-03-21T05:23:41.311Z,7.24
2023-03-21T05:24:41.284Z,7.24
2023-03-21T05:25:41.312Z,7.23
2023-03-21T05:26:41.277Z,7.23
2023-03-21T05:27:41.258Z,7.24
2023-03-21T05:28:41.247Z,7.28
2023-03-21T05:29:41.238Z,7.28
2023-03-21T05:30:41.277Z,7.29
2023-03-21T05:31:41.226Z,7.31
2023-03-21T05:32:41.222Z,7.33
2023-03-21T05:33:41.206Z,7.33
2023-03-21T05:34:41.182Z,7.35
2023-03-21T05:35:41.419Z,7.35
2023-03-21T05:36:41.159Z,7.33
2023-03-21T05:37:41.172Z,7.32
2023-03-21T05:38:41.139Z,7.35
2023-03-21T05:39:41.149Z,7.33
2023-03-21T05:40:41.171Z,7.36
2023-03-21T05:41:41.114Z,7.36
2023-03-21T05:42:41.105Z,7.35
2023-03-21T05:43:41.067Z,7.39
2023-03-21T05:44:41.070Z,7.40
2023-03-21T05:45:41.117Z,7.43
2023-03-21T05:46:41.055Z,7.45
2023-03-21T05:47:41.074Z,7.45
2023-03-21T05:48:41.048Z,7.45
2023-03-21T05:49:41.009Z,7.50
2023-03-21T05:50:41.035Z,7.51
2023-03-21T05:51:41.011Z,7.53
2023-03-21T05:52:41.002Z,7.54
2023-03-21T05:53:40.994Z,7.56
2023-03-21T05:54:40.957Z,7.60
2023-03-21T05:55:40.981Z,7.61
2023-03-21T05:56:40.924Z,7.63
2023-03-21T05:57:40.944Z,7.63
2023-03-21T05:58:40.948Z,7.67
2023-03-21T05:59:40.907Z,7.69
2023-03-21T06:00:40.923Z,7.70
2023-03-21T06:01:40.924Z,7.72
2023-03-21T06:02:40.910Z,7.73
2023-03-21T06:03:40.881Z,7.76
2023-03-21T06:04:40.830Z,7.76
2023-03-21T06:05:40.885Z,7.79
2023-03-21T06:06:40.810Z,7.77
2023-03-21T06:07:40.799Z,7.77
2023-03-21T06:08:40.809Z,7.77
2023-03-21T06:09:40.788Z,7.82
2023-03-21T06:10:40.813Z,7.83
2023-03-21T06:11:40.754Z,7.83
2023-03-21T06:12:40.766Z,7.85
2023-03-21T06:13:40.759Z,7.91
2023-03-21T06:14:40.740Z,7.91
2023-03-21T06:15:40.799Z,7.94
2023-03-21T06:16:40.694Z,7.98
2023-03-21T06:17:40.678Z,8.00
2023-03-21T06:18:40.685Z,8.01
2023-03-21T06:19:40.721Z,8.06
2023-03-21T06:20:40.679Z,8.06
2023-03-21T06:21:40.643Z,8.06
2023-03-21T06:22:40.661Z,8.05
2023-03-21T06:23:40.606Z,8.01
2023-03-21T06:24:40.593Z,8.05
2023-03-21T06:25:40.622Z,8.08
2023-03-21T06:26:40.595Z,8.10
2023-03-21T06:27:40.597Z,8.13
2023-03-21T06:28:40.547Z,8.20
2023-03-21T06:29:40.578Z,8.18
2023-03-21T06:30:40.602Z,8.26
2023-03-21T06:31:40.634Z,8.27
2023-03-21T06:32:40.518Z,8.31
2023-03-21T06:33:40.531Z,8.38
2023-03-21T06:34:40.496Z,8.46
2023-03-21T06:35:40.683Z,8.53
2023-03-21T06:36:40.473Z,8.46
2023-03-21T06:37:40.452Z,8.42
2023-03-21T06:38:40.455Z,8.41
2023-03-21T06:39:40.443Z,8.41
2023-03-21T06:40:40.465Z,8.37
2023-03-21T06:41:40.410Z,8.37
2023-03-21T06:42:40.434Z,8.41
2023-03-21T06:43:40.412Z,8.46
2023-03-21T06:44:40.386Z,8.49
2023-03-21T06:45:40.416Z,8.45
2023-03-21T06:46:40.405Z,8.41
2023-03-21T06:47:40.404Z,8.41
2023-03-21T06:48:40.363Z,8.38
2023-03-21T06:49:40.352Z,8.44
2023-03-21T06:50:40.378Z,8.49
2023-03-21T06:51:40.387Z,8.52
2023-03-21T06:52:40.344Z,8.55
2023-03-21T06:53:40.273Z,8.58
2023-03-21T06:54:40.304Z,8.52
2023-03-21T06:55:40.491Z,8.41
2023-03-21T06:56:40.260Z,8.44
2023-03-21T06:57:40.255Z,8.49
2023-03-21T06:58:40.249Z,8.58
2023-03-21T06:59:40.222Z,8.56
2023-03-21T07:00:40.293Z,8.60
2023-03-21T07:01:40.192Z,8.58
2023-03-21T07:02:40.193Z,8.61
2023-03-21T07:03:40.205Z,8.60
2023-03-21T07:04:40.160Z,8.67
2023-03-21T07:05:40.451Z,8.66
2023-03-21T07:06:40.142Z,8.70
2023-03-21T07:07:40.154Z,8.70
2023-03-21T07:08:40.135Z,8.79
2023-03-21T07:09:40.103Z,8.95
2023-03-21T07:10:40.144Z,8.91
2023-03-21T07:11:40.098Z,8.94
2023-03-21T07:12:40.094Z,9.10
2023-03-21T07:13:40.070Z,9.13
2023-03-21T07:14:40.034Z,9.23
2023-03-21T07:15:40.178Z,9.34
2023-03-21T07:16:40.063Z,9.41
2023-03-21T07:17:40.033Z,9.47
2023-03-21T07:18:40.024Z,9.54
2023-03-21T07:19:40.013Z,9.64
2023-03-21T07:20:40.046Z,9.54
2023-03-21T07:21:39.989Z,9.55
2023-03-21T07:22:39.973Z,9.55
2023-03-21T07:23:39.959Z,9.68
2023-03-21T07:24:39.933Z,9.56
2023-03-21T07:25:40.281Z,9.55
2023-03-21T07:26:39.944Z,9.51
2023-03-21T07:27:41.236Z,9.46
2023-03-21T07:28:39.904Z,9.25
2023-03-21T07:29:39.896Z,9.18
2023-03-21T07:30:39.928Z,9.11
2023-03-21T07:31:40.011Z,9.19
2023-03-21T07:32:39.851Z,9.31
2023-03-21T07:33:39.857Z,9.40
2023-03-21T07:34:39.843Z,9.51
2023-03-21T07:35:40.530Z,9.64
2023-03-21T07:36:39.817Z,9.65
2023-03-21T07:37:39.813Z,9.59
2023-03-21T07:38:39.788Z,9.58
2023-03-21T07:39:39.752Z,9.36
2023-03-21T07:40:39.985Z,9.28
2023-03-21T07:41:39.748Z,9.29
2023-03-21T07:42:39.793Z,9.25
2023-03-21T07:43:39.736Z,9.29
2023-03-21T07:44:39.731Z,9.40
2023-03-21T07:45:40.084Z,9.39
2023-03-21T07:46:39.692Z,9.41
2023-03-21T07:47:39.754Z,9.43
2023-03-21T07:48:39.673Z,9.36
2023-03-21T07:49:39.680Z,9.43
2023-03-21T07:50:39.702Z,9.34
2023-03-21T07:51:39.670Z,9.23
2023-03-21T07:52:39.629Z,9.21
2023-03-21T07:53:39.588Z,9.26
2023-03-21T07:54:39.603Z,9.25
2023-03-21T07:55:40.064Z,9.28
2023-03-21T07:56:39.590Z,9.29
2023-03-21T07:57:39.614Z,9.34
2023-03-21T07:58:39.532Z,9.31
2023-03-21T07:59:39.551Z,9.46
2023-03-21T08:00:39.572Z,9.58
2023-03-21T08:01:39.522Z,9.61
2023-03-21T08:02:39.549Z,9.68
2023-03-21T08:03:39.551Z,9.80
2023-03-21T08:04:39.473Z,9.87
2023-03-21T08:05:39.695Z,9.89
2023-03-21T08:06:39.474Z,9.77
2023-03-21T08:07:39.476Z,9.69
2023-03-21T08:08:39.509Z,9.55
2023-03-21T08:09:39.434Z,9.62
2023-03-21T08:10:39.463Z,9.58
2023-03-21T08:11:39.411Z,9.55
2023-03-21T08:12:39.418Z,9.55
2023-03-21T08:13:39.396Z,9.54
2023-03-21T08:14:39.402Z,9.56
2023-03-21T08:15:39.499Z,9.62
2023-03-21T08:16:39.359Z,9.80
2023-03-21T08:17:39.353Z,9.87
2023-03-21T08:18:39.338Z,9.92
2023-03-21T08:19:39.347Z,9.95
2023-03-21T08:20:39.365Z,10.10
2023-03-21T08:21:39.275Z,9.99
2023-03-21T08:22:39.275Z,9.97
2023-03-21T08:23:39.279Z,9.99
2023-03-21T08:24:39.306Z,10.05
2023-03-21T08:25:39.572Z,10.20
2023-03-21T08:26:39.243Z,10.19
2023-03-21T08:27:39.246Z,10.05
2023-03-21T08:28:39.193Z,10.17
2023-03-21T08:29:39.269Z,10.23
2023-03-21T08:30:39.254Z,10.09
2023-03-21T08:31:39.197Z,10.07
2023-03-21T08:32:39.242Z,10.04
2023-03-21T08:33:39.155Z,10.02
2023-03-21T08:34:39.199Z,10.05
2023-03-21T08:35:41.115Z,10.13
2023-03-21T08:36:39.139Z,10.15
2023-03-21T08:37:39.118Z,10.07
2023-03-21T08:38:39.100Z,10.04
2023-03-21T08:39:39.154Z,10.04
2023-03-21T08:40:39.105Z,10.13
2023-03-21T08:41:39.094Z,10.28
2023-03-21T08:42:39.073Z,10.41
2023-03-21T08:43:39.056Z,10.31
2023-03-21T08:44:39.059Z,10.31
2023-03-21T08:45:39.244Z,10.35
2023-03-21T08:46:39.040Z,10.40
2023-03-21T08:47:39.040Z,10.40
2023-03-21T08:48:39.017Z,10.44
2023-03-21T08:49:38.975Z,10.37
2023-03-21T08:50:39.161Z,10.40
2023-03-21T08:51:38.965Z,10.41
2023-03-21T08:52:38.936Z,10.40
2023-03-21T08:53:38.921Z,10.49
2023-03-21T08:54:38.973Z,10.51
2023-03-21T08:55:39.169Z,10.57
2023-03-21T08:56:38.886Z,10.56
2023-03-21T08:57:38.904Z,10.48
2023-03-21T08:58:38.906Z,10.61
2023-03-21T08:59:38.863Z,10.75
2023-03-21T09:00:38.908Z,10.89
2023-03-21T09:01:38.922Z,10.89
2023-03-21T09:02:38.829Z,10.97
2023-03-21T09:03:38.832Z,11.10
2023-03-21T09:04:38.877Z,11.15
2023-03-21T09:05:39.169Z,11.05
2023-03-21T09:06:38.826Z,10.99
2023-03-21T09:07:38.772Z,11.12
2023-03-21T09:08:38.781Z,11.08
2023-03-21T09:09:38.760Z,11.11
2023-03-21T09:10:38.775Z,10.97
2023-03-21T09:11:38.747Z,10.87
2023-03-21T09:12:38.713Z,11.15
2023-03-21T09:13:38.717Z,11.10
2023-03-21T09:14:38.714Z,11.14
2023-03-21T09:15:38.871Z,11.32
2023-03-21T09:16:38.686Z,11.26
2023-03-21T09:17:38.687Z,11.18
2023-03-21T09:18:38.659Z,11.22
2023-03-21T09:19:38.624Z,11.44
2023-03-21T09:20:38.696Z,11.52
2023-03-21T09:21:38.599Z,11.57
2023-03-21T09:22:40.233Z,11.51
2023-03-21T09:23:38.609Z,11.70
2023-03-21T09:24:38.597Z,12.06
2023-03-21T09:25:38.938Z,12.35
2023-03-21T09:26:38.564Z,12.60
2023-03-21T09:27:38.552Z,12.68
2023-03-21T09:28:38.522Z,12.60
2023-03-21T09:29:38.527Z,12.57
2023-03-21T09:30:38.555Z,12.35
2023-03-21T09:31:38.557Z,12.37
2023-03-21T09:32:38.499Z,12.50
2023-03-21T09:33:38.478Z,12.54
2023-03-21T09:34:38.476Z,12.45
2023-03-21T09:35:38.794Z,12.61
2023-03-21T09:36:38.470Z,12.53
2023-03-21T09:37:38.432Z,12.12
2023-03-21T09:38:38.434Z,11.95
2023-03-21T09:39:38.390Z,11.81
2023-03-21T09:40:38.432Z,11.66
2023-03-21T09:41:38.378Z,11.65
2023-03-21T09:42:38.376Z,12.06
2023-03-21T09:43:38.370Z,12.39
2023-03-21T09:44:38.364Z,12.73
2023-03-21T09:45:38.775Z,12.83
2023-03-21T09:46:38.360Z,12.97
2023-03-21T09:47:38.372Z,12.28
2023-03-21T09:48:46.999Z,12.35
2023-03-21T09:49:39.301Z,12.67
2023-03-21T09:50:38.324Z,12.85
2023-03-21T09:51:38.292Z,12.95
2023-03-21T09:52:38.251Z,13.22
2023-03-21T09:53:38.339Z,13.46
2023-03-21T09:54:38.232Z,13.22
2023-03-21T09:55:38.519Z,13.12
2023-03-21T09:56:38.207Z,13.13
2023-03-21T09:57:38.199Z,13.11
2023-03-21T09:58:38.186Z,13.19
2023-03-21T09:59:38.325Z,12.91
2023-03-21T10:00:38.297Z,12.68
2023-03-21T10:01:38.181Z,12.54
2023-03-21T10:02:38.188Z,12.76
2023-03-21T10:03:38.224Z,12.73
2023-03-21T10:04:38.193Z,12.60
2023-03-21T10:05:38.500Z,12.46
2023-03-21T10:06:38.101Z,12.47
2023-03-21T10:07:38.121Z,12.50
2023-03-21T10:08:38.098Z,12.35
2023-03-21T10:09:38.064Z,12.15
2023-03-21T10:10:38.373Z,12.09
2023-03-21T10:11:38.043Z,12.28
2023-03-21T10:12:38.036Z,12.43
2023-03-21T10:13:38.030Z,12.42
2023-03-21T10:14:38.033Z,12.18
2023-03-21T10:15:38.447Z,12.17
2023-03-21T10:16:37.998Z,12.22
2023-03-21T10:17:38.200Z,12.27
2023-03-21T10:18:37.979Z,12.20
2023-03-21T10:19:37.951Z,12.28
2023-03-21T10:20:37.984Z,12.27
2023-03-21T10:21:59.023Z,12.39
2023-03-21T10:22:38.915Z,12.49
2023-03-21T10:23:37.896Z,12.60
2023-03-21T10:24:37.881Z,12.53
2023-03-21T10:25:38.362Z,12.55
2023-03-21T10:26:37.880Z,12.73
2023-03-21T10:27:37.867Z,12.76
2023-03-21T10:28:51.989Z,13.03
2023-03-21T10:29:39.044Z,13.04
2023-03-21T10:30:37.900Z,12.82
2023-03-21T10:31:37.818Z,12.67
2023-03-21T10:32:37.859Z,12.70
2023-03-21T10:33:37.772Z,12.78
2023-03-21T10:34:37.777Z,12.76
2023-03-21T10:35:38.170Z,12.61
2023-03-21T10:36:37.778Z,12.78
2023-03-21T10:37:37.759Z,13.03
2023-03-21T10:38:37.732Z,12.94
2023-03-21T10:39:37.747Z,12.91
2023-03-21T10:40:37.779Z,12.90
2023-03-21T10:41:37.737Z,12.98
2023-03-21T10:42:37.692Z,12.90
2023-03-21T10:43:37.680Z,12.65
2023-03-21T10:44:37.670Z,12.32
2023-03-21T10:45:38.085Z,12.15
2023-03-21T10:46:37.877Z,11.94
2023-03-21T10:47:37.834Z,11.99
2023-03-21T10:48:37.799Z,12.09
2023-03-21T10:49:56.377Z,12.04
2023-03-21T10:50:38.680Z,12.12
2023-03-21T10:51:37.625Z,12.29
2023-03-21T10:52:37.585Z,12.22
2023-03-21T10:53:37.576Z,12.29
2023-03-21T10:54:37.554Z,12.43
2023-03-21T10:55:37.973Z,12.36
2023-03-21T10:56:37.550Z,12.37
2023-03-21T10:57:37.524Z,12.46
2023-03-21T10:58:37.526Z,12.22
2023-03-21T10:59:37.497Z,12.04
2023-03-21T11:00:37.495Z,12.15
2023-03-21T11:01:37.527Z,12.06
2023-03-21T11:02:37.499Z,12.02
2023-03-21T11:03:37.469Z,11.91
2023-03-21T11:04:37.446Z,12.04
2023-03-21T11:05:37.688Z,12.25
2023-03-21T11:06:37.417Z,12.46
2023-03-21T11:07:37.385Z,12.58
2023-03-21T11:08:37.386Z,12.54
2023-03-21T11:09:37.386Z,12.35
2023-03-21T11:10:37.434Z,12.25
2023-03-21T11:11:37.380Z,12.31
2023-03-21T11:12:37.424Z,12.21
2023-03-21T11:13:37.364Z,12.31
2023-03-21T11:14:37.343Z,12.37
2023-03-21T11:15:37.788Z,12.40
2023-03-21T11:16:39.631Z,12.36
2023-03-21T11:17:37.276Z,12.24
2023-03-21T11:18:37.271Z,12.25
2023-03-21T11:19:37.280Z,12.18
2023-03-21T11:20:37.302Z,12.32
2023-03-21T11:21:37.293Z,12.37
2023-03-21T11:22:37.252Z,12.39
2023-03-21T11:23:37.226Z,12.49
2023-03-21T11:24:37.212Z,12.57
2023-03-21T11:25:37.503Z,12.73
2023-03-21T11:26:37.204Z,12.76
2023-03-21T11:27:37.190Z,12.65
2023-03-21T11:28:37.164Z,12.67
2023-03-21T11:29:37.156Z,12.67
2023-03-21T11:30:37.210Z,12.40
2023-03-21T11:31:37.140Z,12.47
2023-03-21T11:32:37.151Z,12.67
2023-03-21T11:33:37.118Z,12.64
2023-03-21T11:34:37.137Z,12.64
2023-03-21T11:35:37.680Z,12.68
2023-03-21T11:36:37.108Z,12.67
2023-03-21T11:37:37.080Z,12.68
2023-03-21T11:38:37.077Z,12.58
2023-03-21T11:39:37.050Z,12.35
2023-03-21T11:40:37.121Z,12.37
2023-03-21T11:41:37.052Z,12.65
2023-03-21T11:42:37.012Z,12.85
2023-03-21T11:43:37.023Z,12.90
2023-03-21T11:44:36.995Z,12.82
2023-03-21T11:45:37.405Z,13.05
2023-03-21T11:46:36.997Z,13.13
2023-03-21T11:47:36.938Z,13.09
2023-03-21T11:48:36.971Z,13.19
2023-03-21T11:49:36.937Z,13.20
2023-03-21T11:50:36.976Z,13.00
2023-03-21T11:51:36.928Z,12.76
2023-03-21T11:52:36.932Z,12.64
2023-03-21T11:53:36.885Z,12.61
2023-03-21T11:54:36.890Z,12.40
2023-03-21T11:55:37.239Z,12.39
2023-03-21T11:56:36.860Z,12.46
2023-03-21T11:57:36.861Z,12.37
2023-03-21T11:58:36.904Z,12.40
2023-03-21T11:59:36.844Z,12.43
2023-03-21T12:00:36.873Z,12.37
2023-03-21T12:01:36.797Z,12.31
2023-03-21T12:02:36.922Z,12.50
2023-03-21T12:03:47.279Z,12.67
2023-03-21T12:04:37.900Z,12.78
2023-03-21T12:05:37.234Z,12.75
2023-03-21T12:06:36.766Z,12.76
2023-03-21T12:07:36.772Z,12.85
2023-03-21T12:08:36.750Z,13.00
2023-03-21T12:09:36.695Z,12.87
2023-03-21T12:10:36.751Z,12.93
2023-03-21T12:11:36.704Z,13.15
2023-03-21T12:12:39.424Z,13.12
2023-03-21T12:13:36.675Z,13.33
2023-03-21T12:14:36.653Z,13.39
2023-03-21T12:15:36.885Z,13.52
2023-03-21T12:16:36.655Z,13.23
2023-03-21T12:17:36.630Z,13.20
2023-03-21T12:18:36.629Z,13.04
2023-03-21T12:19:36.631Z,12.98
2023-03-21T12:20:36.616Z,13.20
2023-03-21T12:21:36.569Z,13.54
2023-03-21T12:22:36.577Z,13.77
2023-03-21T12:23:36.614Z,13.65
2023-03-21T12:24:36.534Z,13.72
2023-03-21T12:25:36.827Z,13.35
2023-03-21T12:26:36.518Z,13.23
2023-03-21T12:27:36.498Z,13.16
2023-03-21T12:28:36.509Z,13.00
2023-03-21T12:29:36.486Z,12.94
2023-03-21T12:30:36.571Z,13.16
2023-03-21T12:31:36.494Z,13.09
2023-03-21T12:32:36.443Z,13.30
2023-03-21T12:33:36.428Z,13.46
2023-03-21T12:34:36.427Z,13.42
2023-03-21T12:35:36.709Z,13.60
2023-03-21T12:36:36.459Z,13.39
2023-03-21T12:37:36.390Z,13.38
2023-03-21T12:38:36.412Z,13.30
2023-03-21T12:39:36.375Z,13.47
2023-03-21T12:40:36.373Z,13.49
2023-03-21T12:41:36.403Z,13.30
2023-03-21T12:42:36.329Z,13.41
2023-03-21T12:43:36.316Z,13.44
2023-03-21T12:44:36.318Z,13.25
2023-03-21T12:45:46.564Z,13.31
2023-03-21T12:46:37.340Z,13.33
2023-03-21T12:47:36.290Z,13.30
2023-03-21T12:48:36.320Z,13.44
2023-03-21T12:49:36.283Z,13.47
2023-03-21T12:50:36.246Z,13.22
2023-03-21T12:51:36.287Z,13.16
2023-03-21T12:52:36.254Z,13.18
2023-03-21T12:53:36.232Z,12.98
2023-03-21T12:54:36.223Z,12.91
2023-03-21T12:55:36.504Z,12.58
2023-03-21T12:56:36.213Z,12.72
2023-03-21T12:57:38.228Z,12.68
2023-03-21T12:58:36.147Z,12.58
2023-03-21T12:59:36.138Z,12.72
2023-03-21T13:00:36.394Z,12.86
2023-03-21T13:01:36.124Z,12.91
2023-03-21T13:02:36.163Z,13.09
2023-03-21T13:03:40.152Z,13.05
2023-03-21T13:04:36.165Z,12.95
2023-03-21T13:05:36.087Z,13.00
2023-03-21T13:06:36.073Z,13.13
2023-03-21T13:07:36.094Z,13.20
2023-03-21T13:08:36.067Z,13.30
2023-03-21T13:09:37.971Z,13.33
2023-03-21T13:10:36.236Z,13.25